Flinterbothnia — PBLG — position and weather

sailwx.info

Track history (hours):
 
Tides and Currents Weather Stations Pressure Air Temp Water Temp Dewpoint Dewpoint Depression Visibility Wind Speed Wind Dir Waves Ship Positions

Flinterbothnia

Last reported at 2014-Nov-28 00:25 UTC. Time now 2014-Nov-29 01:13 UTC.
Position N 52°18' W 005°55'.

Length 82 m; draft 5.5 m.

Type: Cargo ship. MMSI: 244741000.

Date/timePositionNaut miles runAvg speedWind from/ knotsBaromVisibWave heightAir tempDewpointWater temp
2014-Nov-28 00:25N 52°18' W 005°55'7 6.8
2014-Nov-27 23:25N 52°25' W 005°56'75 9.4
2014-Nov-27 15:30N 53°39' W 006°03'8 8.1
2014-Nov-27 14:32N 53°43' W 006°14'1 0.0
2014-Nov-26 14:32N 53°43' W 006°12'1 1.3
2014-Nov-26 13:33N 53°44' W 006°11'0 0.4
2014-Nov-26 12:33N 53°44' W 006°11'0 0.0
2014-Nov-26 11:33N 53°44' W 006°11'0 0.1
2014-Nov-26 10:33N 53°44' W 006°11'0 0.0
2014-Nov-26 09:33N 53°44' W 006°11'0 0.1
2014-Nov-26 08:22N 53°44' W 006°11'0 0.0
2014-Nov-26 07:33N 53°44' W 006°11'0 0.1
2014-Nov-26 06:33N 53°44' W 006°11'0 0.0
2014-Nov-26 05:33N 53°44' W 006°11'0 0.0
2014-Nov-26 04:33N 53°44' W 006°11'0 0.0
2014-Nov-26 03:32N 53°44' W 006°11'0 0.0
2014-Nov-26 02:33N 53°44' W 006°11'0 0.1
2014-Nov-26 01:33N 53°44' W 006°11'0 0.0
2014-Nov-26 00:33N 53°44' W 006°11'0 0.0
2014-Nov-25 23:33N 53°44' W 006°11'0 0.0
2014-Nov-25 22:33N 53°44' W 006°11'0 0.0
2014-Nov-25 21:33N 53°44' W 006°11'0 0.0
2014-Nov-25 20:33N 53°44' W 006°11'0 0.0
2014-Nov-25 19:33N 53°44' W 006°11'0 0.1
2014-Nov-25 18:33N 53°44' W 006°11'0 0.0
2014-Nov-25 17:32N 53°44' W 006°11'0 0.0
2014-Nov-25 16:32N 53°44' W 006°11'0 0.0
2014-Nov-25 15:33N 53°44' W 006°11'0 0.0
2014-Nov-25 14:25N 53°44' W 006°11'0 0.0
2014-Nov-25 13:30N 53°44' W 006°11'0 0.1
2014-Nov-25 12:33N 53°44' W 006°11'0 0.0
2014-Nov-25 11:32N 53°44' W 006°11'0 0.0
2014-Nov-25 10:32N 53°44' W 006°11'0 0.0
2014-Nov-25 09:33N 53°44' W 006°11'0 0.0
2014-Nov-25 08:32N 53°44' W 006°11'0 0.0
2014-Nov-25 07:33N 53°44' W 006°11'0 0.0
2014-Nov-25 06:33N 53°44' W 006°11'0 0.1
2014-Nov-25 05:33N 53°44' W 006°11'0 0.0
2014-Nov-25 04:33N 53°44' W 006°11'0 0.0
2014-Nov-25 03:32N 53°44' W 006°11'0 0.0
2014-Nov-25 02:31N 53°44' W 006°11'0 0.0
2014-Nov-25 01:23N 53°44' W 006°11'14 7.4
2014-Nov-24 23:29N 53°55' W 005°57'3511.9
2014-Nov-24 20:33N 54°23' W 005°22'1313.3
2014-Nov-24 19:34N 54°37' W 005°19'1212.4
2014-Nov-24 18:33N 54°49' W 005°16'1211.9
2014-Nov-24 17:33N 55°01' W 005°14'  
2014-Nov-20 17:21N 55°15' W 005°42'911.4
2014-Nov-20 16:33N 55°15' W 005°57'1010.1
2014-Nov-20 15:33N 55°21' W 006°11'9 9.4
2014-Nov-20 14:33N 55°28' W 006°22'9 9.1
2014-Nov-20 13:33N 55°36' W 006°30'8 7.8
2014-Nov-20 12:33N 55°43' W 006°38'9 8.7
2014-Nov-20 11:30N 55°50' W 006°46'148 9.1
2014-Nov-19 19:08N 58°15' W 005°42'86 9.8
2014-Nov-19 10:22N 58°43' W 003°07'1111.3
2014-Nov-19 09:25N 58°42' W 002°47'  
Track history (hours):
 
Tides and Currents Weather Stations Pressure Air Temp Water Temp Dewpoint Dewpoint Depression Visibility Wind Speed Wind Dir Waves Ship Positions

Flinterbothnia

Last reported at 2014-Nov-28 00:25 UTC. Time now 2014-Nov-29 01:13 UTC.
Position N 52°18' W 005°55'.

Length 82 m; draft 5.5 m.

Type: Cargo ship. MMSI: 244741000.

Date/timePositionNaut miles runAvg speedWind from/ knotsBaromVisibWave heightAir tempDewpointWater temp
2014-Nov-28 00:25N 52°18' W 005°55'7 6.8
2014-Nov-27 23:25N 52°25' W 005°56'75 9.4
2014-Nov-27 15:30N 53°39' W 006°03'8 8.1
2014-Nov-27 14:32N 53°43' W 006°14'1 0.0
2014-Nov-26 14:32N 53°43' W 006°12'1 1.3
2014-Nov-26 13:33N 53°44' W 006°11'0 0.4
2014-Nov-26 12:33N 53°44' W 006°11'0 0.0
2014-Nov-26 11:33N 53°44' W 006°11'0 0.1
2014-Nov-26 10:33N 53°44' W 006°11'0 0.0
2014-Nov-26 09:33N 53°44' W 006°11'0 0.1
2014-Nov-26 08:22N 53°44' W 006°11'0 0.0
2014-Nov-26 07:33N 53°44' W 006°11'0 0.1
2014-Nov-26 06:33N 53°44' W 006°11'0 0.0
2014-Nov-26 05:33N 53°44' W 006°11'0 0.0
2014-Nov-26 04:33N 53°44' W 006°11'0 0.0
2014-Nov-26 03:32N 53°44' W 006°11'0 0.0
2014-Nov-26 02:33N 53°44' W 006°11'0 0.1
2014-Nov-26 01:33N 53°44' W 006°11'0 0.0
2014-Nov-26 00:33N 53°44' W 006°11'0 0.0
2014-Nov-25 23:33N 53°44' W 006°11'0 0.0
2014-Nov-25 22:33N 53°44' W 006°11'0 0.0
2014-Nov-25 21:33N 53°44' W 006°11'0 0.0
2014-Nov-25 20:33N 53°44' W 006°11'0 0.0
2014-Nov-25 19:33N 53°44' W 006°11'0 0.1
2014-Nov-25 18:33N 53°44' W 006°11'0 0.0
2014-Nov-25 17:32N 53°44' W 006°11'0 0.0
2014-Nov-25 16:32N 53°44' W 006°11'0 0.0
2014-Nov-25 15:33N 53°44' W 006°11'0 0.0
2014-Nov-25 14:25N 53°44' W 006°11'0 0.0
2014-Nov-25 13:30N 53°44' W 006°11'0 0.1
2014-Nov-25 12:33N 53°44' W 006°11'0 0.0
2014-Nov-25 11:32N 53°44' W 006°11'0 0.0
2014-Nov-25 10:32N 53°44' W 006°11'0 0.0
2014-Nov-25 09:33N 53°44' W 006°11'0 0.0
2014-Nov-25 08:32N 53°44' W 006°11'0 0.0
2014-Nov-25 07:33N 53°44' W 006°11'0 0.0
2014-Nov-25 06:33N 53°44' W 006°11'0 0.1
2014-Nov-25 05:33N 53°44' W 006°11'0 0.0
2014-Nov-25 04:33N 53°44' W 006°11'0 0.0
2014-Nov-25 03:32N 53°44' W 006°11'0 0.0
2014-Nov-25 02:31N 53°44' W 006°11'0 0.0
2014-Nov-25 01:23N 53°44' W 006°11'14 7.4
2014-Nov-24 23:29N 53°55' W 005°57'3511.9
2014-Nov-24 20:33N 54°23' W 005°22'1313.3
2014-Nov-24 19:34N 54°37' W 005°19'1212.4
2014-Nov-24 18:33N 54°49' W 005°16'1211.9
2014-Nov-24 17:33N 55°01' W 005°14'  
2014-Nov-20 17:21N 55°15' W 005°42'911.4
2014-Nov-20 16:33N 55°15' W 005°57'1010.1
2014-Nov-20 15:33N 55°21' W 006°11'9 9.4
2014-Nov-20 14:33N 55°28' W 006°22'9 9.1
2014-Nov-20 13:33N 55°36' W 006°30'8 7.8
2014-Nov-20 12:33N 55°43' W 006°38'9 8.7
2014-Nov-20 11:30N 55°50' W 006°46'148 9.1
2014-Nov-19 19:08N 58°15' W 005°42'86 9.8
2014-Nov-19 10:22N 58°43' W 003°07'1111.3
2014-Nov-19 09:25N 58°42' W 002°47'  

Dump ship's entire track history